This is the latest recevied weather packets stored in our database for station/object F4WDE-10. If no packets are shown the sender has not sent any weather packets the latest 10 day(s).
| Time | Temp. | Humidity | Pressure | Rain* | Wind** | Luminosity | Snow |
|---|---|---|---|---|---|---|---|
| 1777590194 | 16.67° C | 53% | 966 hPa | - | - | - | - |
| 1777589293 | 17.22° C | 53% | 966 hPa | - | - | - | - |
| 1777588392 | 16.67° C | 54% | 966 hPa | - | - | - | - |
| 1777587491 | 16.67° C | 55% | 966 hPa | - | - | - | - |
| 1777586590 | 16.67° C | 55% | 966 hPa | - | - | - | - |
| 1777585689 | 17.22° C | 54% | 966 hPa | - | - | - | - |
| 1777584788 | 17.22° C | 53% | 966 hPa | - | - | - | - |
| 1777583886 | 17.22° C | 53% | 966 hPa | - | - | - | - |
| 1777582985 | 17.22° C | 53% | 966 hPa | - | - | - | - |
| 1777582084 | 17.22° C | 53% | 966 hPa | - | - | - | - |
| 1777581184 | 17.78° C | 52% | 966 hPa | - | - | - | - |
| 1777581183 | 17.78° C | 52% | 966 hPa | - | - | - | - |
| 1777580283 | 18.33° C | 48% | 966 hPa | - | - | - | - |
| 1777580282 | 18.33° C | 48% | 966 hPa | - | - | - | - |
| 1777579381 | 18.33° C | 48% | 966 hPa | - | - | - | - |
| 1777578480 | 18.89° C | 47% | 966 hPa | - | - | - | - |
| 1777577579 | 18.89° C | 48% | 966 hPa | - | - | - | - |
| 1777576678 | 18.33° C | 50% | 966 hPa | - | - | - | - |
| 1777575776 | 18.89° C | 50% | 966 hPa | - | - | - | - |
| 1777574875 | 18.33° C | 52% | 966 hPa | - | - | - | - |
| 1777573974 | 18.33° C | 52% | 966 hPa | - | - | - | - |
| 1777573073 | 18.89° C | 50% | 965 hPa | - | - | - | - |
| 1777572172 | 18.89° C | 50% | 965 hPa | - | - | - | - |
| 1777571271 | 19.44° C | 48% | 965 hPa | - | - | - | - |
| 1777570370 | 20° C | 47% | 965 hPa | - | - | - | - |
* Rain since midnight (hover to see other rain measurements)
** Current wind speed in m/s (hover to see current wind gust speed)